Stratford, Texas
Current Conditions -  °F | °C
As of 8:55 PM on Wednesday 22 Oct 2014 (Local Time) from KDUX Reporting Station
Haze Haze  
Wind Chill: 60°   Ceiling: Unl
Heat Index: 60°   Visibility: 5mi
Dew Point: 57°   Wind: 12mph
Humidity: 91%   Direction: 150°SSE
Pressure: 30.08"   Gusts: NA
Location:  36.34°N, 102.07°W
Report Text: KDUX 230155Z AUTO 15010KT 5SM BR SCT005 16/14 A3008 RMK AO2 T01550140
Loading
Personal Weather Stations






























Interactive Weather Map
Tropical Storm Tracking
New forecast layout! Learn more

10-Day Weather Forecast

Advertisements
Track Severe Weather on mobile